Latest Weather Observations for Shepparton

IDV60801

Issued at 8:32 pm EST Sunday 3 July 2022 (issued every 10 minutes, with the page automatically refreshed every 10 minutes)

About weather observations | Map of weather stations | Latest weather observations for VIC | Other Formats
Station Details ID: 081125 Name: SHEPPARTON AIRPORT Lat: -36.43 Lon: 145.39 Height: 113.9 m
Data from the previous 72 hours. | See also: Recent months at Shepparton
Date/Time
EST
Temp
°C
App
Temp
°C
Dew
Point
°C
Rel
Hum
%
Delta-T
°C
Wind Press
QNH
hPa
Press
MSL
hPa
Rain since
9am
mm
Dir  Spd
km/h
Gust
km/h
Spd
kts
Gust
kts
03/08:30pm 7.5 3.2 5.1 85 1.1 S 17 22 9 12 1023.8 1024.0 0.2
03/08:00pm 7.8 3.5 5.1 83 1.2 S 17 24 9 13 1023.8 1024.0 0.2
03/07:30pm 8.3 3.7 5.4 82 1.3 S 19 28 10 15 1023.5 1023.7 0.2
03/07:00pm 8.7 4.1 5.6 81 1.4 S 19 24 10 13 1023.3 1023.5 0.2
03/06:30pm 9.2 4.4 5.8 79 1.6 SSW 20 28 11 15 1023.3 1023.5 0.2
03/06:00pm 9.5 4.9 5.7 77 1.7 SSW 19 26 10 14 1023.3 1023.5 0.2
03/05:30pm 9.8 5.6 5.8 76 1.8 SSW 17 24 9 13 1023.0 1023.2 0.2
03/05:00pm 10.7 6.6 6.1 73 2.1 SSW 17 26 9 14 1023.0 1023.2 0.2
03/04:30pm 11.8 7.3 6.3 69 2.6 SSW 19 26 10 14 1023.0 1023.2 0.2
03/04:00pm 12.5 8.0 6.1 65 3.0 SSW 19 26 10 14 1023.1 1023.3 0.2
03/03:30pm 13.1 9.1 6.5 64 3.2 S 17 20 9 11 1023.0 1023.2 0.2
03/03:00pm 13.5 9.4 6.4 62 3.4 S 17 22 9 12 1022.9 1023.1 0.2
03/02:30pm 13.2 8.6 5.6 60 3.6 SSW 19 24 10 13 1022.9 1023.1 0.2
03/02:00pm 13.1 8.9 5.8 61 3.4 SSW 17 26 9 14 1023.0 1023.2 0.2
03/01:30pm 13.0 8.8 5.7 61 3.4 SSW 17 24 9 13 1023.5 1023.7 0.2
03/01:00pm 13.0 8.8 5.9 62 3.4 S 17 24 9 13 1023.7 1023.9 0.2
03/12:30pm 12.3 7.8 5.9 65 3.0 S 19 24 10 13 1024.1 1024.4 0.2
03/12:00pm 11.7 7.2 6.0 68 2.7 SSW 19 26 10 14 1024.4 1024.7 0.2
03/11:30am 11.3 6.4 5.0 65 2.9 SSE 20 30 11 16 1024.9 1025.2 0.0
03/11:00am 10.2 5.6 5.8 74 2.0 S 19 26 10 14 1025.1 1025.4 0.0
03/10:30am 8.9 4.1 4.9 76 1.8 S 19 24 10 13 1025.2 1025.5 0.0
03/10:00am 8.2 4.0 5.5 83 1.2 S 17 26 9 14 1025.3 1025.6 0.0
03/09:30am 7.2 2.4 4.7 84 1.1 S 19 24 10 13 1025.4 1025.7 0.0
03/09:00am 6.1 2.0 4.4 89 0.7 S 15 20 8 11 1025.4 1025.7 0.0
03/08:30am 4.2 0.3 3.6 96 0.2 SSW 13 17 7 9 1025.5 1025.8 0.0
03/08:00am 4.0 0.0 3.1 94 0.4 S 13 17 7 9 1025.2 1025.5 0.0
03/07:30am 3.9 0.3 3.0 94 0.4 S 11 13 6 7 1025.2 1025.5 0.0
03/07:00am 4.1 0.1 3.1 93 0.4 S 13 19 7 10 1024.7 1025.0 0.0
03/06:30am 3.9 -0.1 3.0 94 0.4 S 13 15 7 8 1024.7 1025.0 0.0
03/06:00am 3.6 -0.4 2.9 95 0.3 S 13 15 7 8 1024.6 1024.9 0.0
03/05:30am 4.5 0.3 3.6 94 0.4 S 15 20 8 11 1024.5 1024.8 0.0
03/05:00am 3.9 0.1 3.8 99 0.0 SSW 13 17 7 9 1024.4 1024.7 0.0
03/04:30am 3.4 -0.5 3.3 99 0.0 SSW 13 15 7 8 1024.5 1024.8 0.0
03/04:00am 3.8 0.3 3.7 99 0.0 S 11 15 6 8 1024.9 1025.2 0.0
03/03:30am 4.1 1.0 3.5 96 0.2 S 9 13 5 7 1025.0 1025.3 0.0
03/03:00am 5.0 1.2 4.1 94 0.4 S 13 17 7 9 1025.0 1025.3 0.0
03/02:30am 4.4 1.0 3.8 96 0.3 S 11 17 6 9 1025.1 1025.4 0.0
03/02:00am 4.8 1.1 4.4 97 0.2 S 13 19 7 10 1025.3 1025.6 0.0
03/01:30am 4.6 0.9 4.3 98 0.1 SSW 13 15 7 8 1025.4 1025.7 0.0
03/01:00am 4.8 1.5 4.4 97 0.2 S 11 15 6 8 1025.5 1025.8 0.0
03/12:30am 5.1 1.3 4.1 93 0.4 S 13 17 7 9 1025.6 1025.9 0.0
03/12:00am 5.7 1.6 4.3 91 0.6 S 15 20 8 11 1025.8 1026.1 0.0
 
Date/Time
EST
Temp
°C
App
Temp
°C
Dew
Point
°C
Rel
Hum
%
Delta-T
°C
Wind Press
QNH
hPa
Press
MSL
hPa
Rain since
9am
mm
Dir  Spd
km/h
Gust
km/h
Spd
kts
Gust
kts
02/11:30pm 6.0 2.0 4.8 92 0.5 S 15 20 8 11 1025.5 1025.8 0.0
02/11:00pm 5.6 1.8 3.8 88 0.8 SSW 13 17 7 9 1025.6 1025.9 0.0
02/10:30pm 6.2 3.6 4.2 87 0.9 S 7 13 4 7 1025.7 1026.0 0.0
02/10:00pm 6.9 2.9 4.9 87 0.9 S 15 20 8 11 1025.5 1025.8 0.0
02/09:30pm 7.0 2.7 5.2 88 0.8 S 17 22 9 12 1025.8 1026.1 0.0
02/09:00pm 7.2 3.3 5.2 87 0.9 S 15 20 8 11 1025.9 1026.2 0.0
02/08:30pm 7.6 3.3 5.1 84 1.1 S 17 24 9 13 1025.9 1026.2 0.0
02/08:00pm 8.0 4.0 4.9 81 1.4 S 15 20 8 11 1025.8 1026.1 0.0
02/07:30pm 8.3 3.4 5.1 80 1.4 SSW 20 26 11 14 1025.4 1025.7 0.0
02/07:00pm 8.5 3.8 5.1 79 1.5 SSW 19 24 10 13 1025.6 1025.9 0.0
02/06:30pm 8.9 4.6 5.3 78 1.6 SSW 17 24 9 13 1025.7 1026.0 0.0
02/06:00pm 9.0 5.1 5.2 77 1.7 SSW 15 19 8 10 1025.7 1026.0 0.0
02/05:30pm 9.8 5.9 5.4 74 2.0 SSW 15 20 8 11 1025.5 1025.8 0.0
02/05:00pm 10.9 6.7 5.7 70 2.4 SSW 17 20 9 11 1025.3 1025.6 0.0
02/04:30pm 12.3 8.9 5.9 65 3.0 S 13 20 7 11 1025.3 1025.6 0.0
02/04:00pm 12.9 8.4 6.3 64 3.1 S 19 24 10 13 1024.9 1025.2 0.0
02/03:30pm 13.3 8.1 5.7 60 3.6 SSW 22 30 12 16 1024.8 1025.1 0.0
02/03:00pm 13.5 8.4 6.1 61 3.5 S 22 30 12 16 1024.9 1025.2 0.0
02/02:30pm 13.7 9.4 6.8 63 3.4 SSW 19 26 10 14 1025.3 1025.6 0.0
02/02:00pm 13.5 9.1 6.6 63 3.3 SSW 19 26 10 14 1025.6 1025.9 0.0
02/01:30pm 13.2 9.1 6.1 62 3.4 S 17 22 9 12 1025.9 1026.2 0.0
02/01:00pm 13.3 8.7 5.7 60 3.6 S 19 24 10 13 1026.3 1026.6 0.0
02/12:30pm 13.0 8.5 5.9 62 3.4 S 19 22 10 12 1027.0 1027.3 0.0
02/12:00pm 12.3 8.1 5.7 64 3.1 S 17 20 9 11 1027.5 1027.8 0.0
02/11:30am 11.4 7.2 5.9 69 2.6 S 17 20 9 11 1027.9 1028.2 0.0
02/11:00am 10.5 6.3 5.9 73 2.1 S 17 22 9 12 1028.1 1028.4 0.0
02/10:30am 9.4 5.3 6.3 81 1.4 S 17 20 9 11 1028.2 1028.5 0.0
02/10:00am 8.6 5.3 6.6 87 0.9 S 13 20 7 11 1028.3 1028.6 0.0
02/09:30am 7.3 4.4 6.4 94 0.4 SSE 11 17 6 9 1028.2 1028.5 0.0
02/09:00am 5.9 3.3 5.9 100 0.0 S 9 13 5 7 1028.1 1028.4 0.2
02/08:30am 3.8 0.7 3.8 100 0.0 SSW 9 13 5 7 1028.0 1028.3 -
02/08:00am 2.5 -0.4 2.5 100 0.0 SSW 7 9 4 5 1028.1 1028.4 -
02/07:30am 2.3 -1.0 2.3 100 0.0 SSW 9 11 5 6 1028.0 1028.3 -
02/07:00am 2.4 -0.9 2.4 100 0.0 SSW 9 9 5 5 1027.9 1028.2 -
02/06:30am 2.8 0.1 2.8 100 0.0 SSW 6 7 3 4 1027.6 1027.9 -
02/06:00am 2.9 -0.3 2.9 100 0.0 SSW 9 11 5 6 1027.3 1027.6 -
02/05:30am 2.7 -0.9 2.7 100 0.0 SSW 11 15 6 8 1027.3 1027.6 -
02/05:00am 3.4 -0.1 3.4 100 0.0 SSW 11 13 6 7 1027.4 1027.7 -
02/04:30am 4.0 0.6 4.0 100 0.0 SSW 11 17 6 9 1027.3 1027.6 -
02/04:00am 4.4 1.1 4.4 100 0.0 SSW 11 13 6 7 1027.4 1027.7 -
02/03:30am 4.3 1.0 4.3 100 0.0 SSW 11 13 6 7 1027.3 1027.6 -
02/03:00am 4.4 0.7 4.4 100 0.0 SSW 13 15 7 8 1027.3 1027.6 0.0
02/02:30am 4.4 1.4 4.3 99 0.0 SSW 9 13 5 7 1027.5 1027.8 -
02/02:00am 5.1 1.9 5.1 100 0.0 SSW 11 15 6 8 1027.7 1028.0 -
02/01:30am 5.1 2.3 5.1 100 0.0 S 9 11 5 6 1028.0 1028.3 -
02/01:00am 5.4 2.2 5.3 99 0.0 S 11 13 6 7 1028.3 1028.6 -
02/12:30am 5.9 2.5 5.9 100 0.0 SSW 13 17 7 9 1028.7 1028.9 -
02/12:00am 5.3 2.5 5.3 100 0.0 SSW 9 13 5 7 1028.9 1029.1 -
 
Date/Time
EST
Temp
°C
App
Temp
°C
Dew
Point
°C
Rel
Hum
%
Delta-T
°C
Wind Press
QNH
hPa
Press
MSL
hPa
Rain since
9am
mm
Dir  Spd
km/h
Gust
km/h
Spd
kts
Gust
kts
01/11:30pm 6.0 3.0 6.0 100 0.0 SSW 11 15 6 8 1028.9 1029.1 -
01/11:00pm 6.1 2.7 6.1 100 0.0 SSW 13 15 7 8 1028.9 1029.1 -
01/10:30pm 6.0 3.0 6.0 100 0.0 S 11 13 6 7 1028.9 1029.1 -
01/10:00pm 6.6 4.1 6.5 99 0.0 S 9 11 5 6 1028.9 1029.1 -
01/09:30pm 6.9 4.5 6.8 99 0.0 S 9 11 5 6 1028.6 1028.8 -
01/09:00pm 7.8 4.7 7.1 95 0.3 S 13 17 7 9 1028.5 1028.7 0.0
01/08:30pm 8.6 4.7 7.2 91 0.7 S 17 22 9 12 1028.6 1028.8 -
01/08:00pm 9.0 5.1 7.1 88 0.9 SSW 17 22 9 12 1028.5 1028.7 -
01/07:30pm 9.3 5.4 7.1 86 1.0 SSW 17 20 9 11 1028.1 1028.4 -
01/07:00pm 9.8 5.9 7.2 84 1.2 SSW 17 24 9 13 1027.8 1028.1 -
01/06:30pm 9.1 6.1 7.9 92 0.6 SSW 13 19 7 10 1027.6 1027.9 -
01/06:00pm 8.3 5.0 6.3 87 0.9 S 13 15 7 8 1027.4 1027.7 -
01/05:30pm 9.4 6.8 6.3 81 1.4 S 9 11 5 6 1027.2 1027.5 -
01/05:00pm 11.6 8.7 6.7 72 2.3 S 11 13 6 7 1027.0 1027.3 -
01/04:30pm 13.4 10.5 6.5 63 3.3 S 11 15 6 8 1026.9 1027.2 -
01/04:00pm 14.1 10.4 6.2 59 3.8 SSW 15 22 8 12 1026.6 1026.9 -
01/03:30pm 14.4 10.3 6.0 57 4.0 SSW 17 26 9 14 1026.6 1026.9 -
01/03:00pm 14.7 10.5 5.8 55 4.2 S 17 26 9 14 1026.6 1026.9 -
01/02:30pm 14.7 10.2 6.0 56 4.2 S 19 24 10 13 1026.7 1027.0 -
01/02:00pm 14.5 9.7 5.8 56 4.1 S 20 28 11 15 1026.9 1027.2 -
01/01:30pm 14.3 10.2 6.2 58 3.9 SSW 17 24 9 13 1027.3 1027.6 -
01/11:00am 11.4 7.0 6.5 72 2.3 S 19 24 10 13 1028.8 1029.0 0.0
01/10:30am 10.8 7.1 6.2 73 2.2 S 15 17 8 9 1028.8 1029.0 0.0
01/10:00am 10.0 5.9 6.3 78 1.7 S 17 24 9 13 1028.6 1028.8 0.0
01/09:30am 8.9 5.1 5.8 81 1.4 S 15 20 8 11 1028.3 1028.6 0.0
01/09:00am 7.8 3.9 5.4 85 1.1 S 15 20 8 11 1028.2 1028.5 0.0
01/08:30am 6.6 3.1 5.6 93 0.4 S 13 17 7 9 1028.1 1028.4 0.0
01/08:00am 5.2 2.0 5.1 99 0.0 S 11 13 6 7 1028.2 1028.5 0.0
01/07:30am 5.1 1.9 5.0 99 0.0 S 11 15 6 8 1028.0 1028.3 0.0
01/07:00am 5.2 2.0 5.1 99 0.0 SSE 11 15 6 8 1027.6 1027.9 0.0
01/06:30am 4.9 1.6 4.5 97 0.2 SSE 11 15 6 8 1027.3 1027.6 0.0
01/06:00am 4.7 1.4 4.3 97 0.2 SSE 11 15 6 8 1027.0 1027.3 0.0
01/05:30am 4.2 0.8 3.8 97 0.2 SSE 11 13 6 7 1026.9 1027.2 0.0
01/05:00am 4.3 0.9 3.9 97 0.2 SSE 11 13 6 7 1026.6 1026.9 0.0
01/04:30am 4.7 1.6 3.8 94 0.4 SSE 9 11 5 6 1026.5 1026.8 0.0
01/04:00am 4.6 1.6 4.0 96 0.3 SSE 9 11 5 6 1026.4 1026.7 0.0
01/03:30am 4.8 1.9 4.5 98 0.1 NE 9 15 5 8 1026.5 1026.8 0.0
01/03:00am 5.0 1.8 4.9 99 0.0 NE 11 15 6 8 1026.5 1026.8 0.0
01/02:30am 4.6 1.3 4.6 100 0.0 NE 11 15 6 8 1026.7 1027.0 0.0
01/02:00am 4.7 1.8 4.7 100 0.0 NE 9 11 5 6 1026.6 1026.9 0.0
01/01:30am 4.7 1.4 4.7 100 0.0 NE 11 15 6 8 1026.6 1026.9 0.0
01/01:00am 3.9 0.5 3.9 100 0.0 NE 11 13 6 7 1026.6 1026.9 0.0
01/12:30am 3.7 0.6 3.7 100 0.0 NE 9 11 5 6 1026.7 1027.0 0.0
01/12:00am 4.4 1.8 4.4 100 0.0 NE 7 9 4 5 1026.7 1027.0 0.0
 
Date/Time
EST
Temp
°C
App
Temp
°C
Dew
Point
°C
Rel
Hum
%
Delta-T
°C
Wind Press
QNH
hPa
Press
MSL
hPa
Rain since
9am
mm
Dir  Spd
km/h
Gust
km/h
Spd
kts
Gust
kts
30/11:30pm 5.0 2.5 5.0 100 0.0 NE 7 9 4 5 1026.7 1027.0 0.0
30/11:00pm 5.7 3.4 5.7 100 0.0 NE 7 9 4 5 1026.6 1026.9 0.0
30/10:30pm 5.6 3.3 5.6 100 0.0 NE 7 9 4 5 1026.5 1026.8 0.0
30/10:00pm 4.3 1.3 4.3 100 0.0 NE 9 11 5 6 1026.4 1026.7 0.0
30/09:30pm 4.5 2.1 4.5 100 0.0 NE 6 7 3 4 1026.3 1026.6 0.0
30/09:00pm 5.9 3.6 5.9 100 0.0 NE 7 9 4 5 1026.2 1026.5 0.0

Other formats

Comma delimited format used in spreadsheet applications
http://www.bom.gov.au/fwo/IDV60801/IDV60801.94875.axf

JavaScript Object Notation format (JSON) in row-major order
http://www.bom.gov.au/fwo/IDV60801/IDV60801.94875.json

Data quality

Most of these data are generated automatically and are frequently updated. Quality checks on data are not normally performed. It is possible for incorrect values to appear. Refer to information at About Latest Weather Observations and please check the disclaimer before using these data.